Time;durP1;ratioP1;P1;durP2;ratioP2;P2;SDS_P1;SDS_P2;PMS_P1;PMS_P2;Temp;Humidity;BMP_temperature;BMP_pressure;BME280_temperature;BME280_humidity;BME280_pressure;Samples;Min_cycle;Max_cycle;Signal;HPM_P1;HPM_P2
2022/12/08 00:15:50;;;;;;;14.53;7.63;;;;;;;-0.88;100.00;97361.19;18232118;32;20047;-66
2022/12/08 00:25:52;;;;;;;13.43;7.43;;;;;;;-0.81;100.00;97346.06;18230348;32;20090;-66
2022/12/08 00:35:55;;;;;;;11.63;7.23;;;;;;;-0.73;100.00;97347.72;18230795;32;20096;-66
2022/12/08 00:45:57;;;;;;;11.90;7.23;;;;;;;-0.68;100.00;97339.94;18229311;32;20117;-66
2022/12/08 00:56:00;;;;;;;12.87;7.10;;;;;;;-0.60;100.00;97323.81;18239668;32;20509;-66
2022/12/08 01:06:04;;;;;;;11.37;6.87;;;;;;;-0.58;100.00;97318.28;18294940;32;20102;-66
2022/12/08 01:16:07;;;;;;;12.93;7.50;;;;;;;-0.50;100.00;97319.91;18303265;32;20073;-66
2022/12/08 01:26:12;;;;;;;11.13;7.03;;;;;;;-0.48;100.00;97312.53;18302347;32;20461;-66
2022/12/08 01:36:24;;;;;;;11.07;6.50;;;;;;;-0.47;100.00;97304.34;18302236;32;20050;-66
2022/12/08 01:46:29;;;;;;;13.20;7.37;;;;;;;-0.44;100.00;97314.59;18287909;32;20062;-66
2022/12/08 01:56:42;;;;;;;11.37;7.40;;;;;;;-0.47;100.00;97304.34;18300901;32;20053;-66
2022/12/08 02:06:48;;;;;;;12.50;7.33;;;;;;;-0.57;100.00;97291.50;18299878;32;20105;-66
2022/12/08 02:17:07;;;;;;;11.67;7.43;;;;;;;-0.78;100.00;97276.66;18300085;32;20058;-66
2022/12/08 02:27:40;;;;;;;10.63;6.70;;;;;;;-1.12;100.00;97270.56;18299658;32;20062;-66
2022/12/08 02:37:47;;;;;;;12.00;7.03;;;;;;;-1.43;100.00;97256.06;18299013;32;20065;-66
2022/12/08 02:47:51;;;;;;;11.60;7.47;;;;;;;-1.78;100.00;97245.66;18284850;32;20129;-66
2022/12/08 02:57:59;;;;;;;11.07;6.80;;;;;;;-1.98;100.00;97231.53;18283558;32;20090;-66
2022/12/08 03:08:10;;;;;;;14.67;8.30;;;;;;;-2.22;100.00;97220.47;18297647;32;20117;-66
2022/12/08 03:18:18;;;;;;;16.73;8.40;;;;;;;-2.38;100.00;97219.00;18296258;32;20107;-66
2022/12/08 03:28:20;;;;;;;15.47;7.90;;;;;;;-2.50;100.00;97208.16;18296483;32;20132;-66
2022/12/08 03:38:23;;;;;;;16.80;8.17;;;;;;;-2.62;100.00;97197.34;18295709;32;20122;-66
2022/12/08 03:48:25;;;;;;;13.27;8.27;;;;;;;-2.80;100.00;97189.09;18295352;32;20058;-66
2022/12/08 03:58:27;;;;;;;11.73;7.63;;;;;;;-2.90;100.00;97189.47;18294914;32;20097;-66
2022/12/08 04:08:38;;;;;;;13.87;8.27;;;;;;;-2.96;100.00;97179.66;18295263;32;20105;-66
2022/12/08 04:18:40;;;;;;;13.50;7.10;;;;;;;-3.02;100.00;97183.09;18294418;32;20113;-66
2022/12/08 04:28:43;;;;;;;12.10;7.30;;;;;;;-2.96;100.00;97171.72;18301833;32;20103;-66
2022/12/08 04:38:45;;;;;;;14.27;7.87;;;;;;;-2.83;100.00;97169.12;18304725;32;20054;-67
2022/12/08 04:48:48;;;;;;;17.17;10.70;;;;;;;-2.72;100.00;97163.28;18291094;32;20054;-66
2022/12/08 04:58:50;;;;;;;17.90;9.83;;;;;;;-2.47;100.00;97157.44;18289556;32;20100;-67
2022/12/08 05:08:52;;;;;;;14.93;9.23;;;;;;;-2.25;100.00;97154.66;18289868;32;20114;-66
2022/12/08 05:18:55;;;;;;;14.97;8.67;;;;;;;-2.08;100.00;97153.25;18289258;32;20041;-67
2022/12/08 05:28:57;;;;;;;12.90;8.13;;;;;;;-1.94;100.00;97150.63;18302322;32;20062;-67
2022/12/08 05:39:00;;;;;;;13.50;7.70;;;;;;;-1.84;100.00;97139.62;18300811;32;20169;-66
2022/12/08 05:49:03;;;;;;;12.37;7.70;;;;;;;-1.83;100.00;97134.13;18301895;32;20102;-67
2022/12/08 05:59:06;;;;;;;11.90;7.27;;;;;;;-1.90;100.00;97131.47;18301080;32;20064;-67
2022/12/08 06:09:11;;;;;;;15.40;8.37;;;;;;;-1.98;100.00;97117.63;18300430;32;20074;-67
2022/12/08 06:19:15;;;;;;;13.07;8.07;;;;;;;-2.13;100.00;97131.84;18300395;32;20053;-67
2022/12/08 06:29:18;;;;;;;14.37;8.70;;;;;;;-2.22;100.00;97130.41;18299916;32;20476;-66
2022/12/08 06:39:21;;;;;;;15.83;8.73;;;;;;;-2.33;100.00;97141.59;18298986;32;20088;-67
2022/12/08 06:49:24;;;;;;;13.03;7.83;;;;;;;-2.43;100.00;97142.00;18298115;32;20058;-67
2022/12/08 06:59:27;;;;;;;15.30;8.77;;;;;;;-2.64;100.00;97145.59;18297662;32;20125;-67
2022/12/08 07:09:30;;;;;;;14.27;9.10;;;;;;;-2.76;100.00;97134.78;18297407;32;20335;-67
2022/12/08 07:19:33;;;;;;;16.53;9.40;;;;;;;-2.67;100.00;97140.69;18296775;32;20532;-67
2022/12/08 07:29:35;;;;;;;14.17;9.07;;;;;;;-2.45;100.00;97136.91;18296343;32;20062;-67
2022/12/08 07:39:38;;;;;;;15.13;9.17;;;;;;;-2.31;100.00;97131.62;18296055;32;20363;-67
2022/12/08 07:49:42;;;;;;;14.70;8.27;;;;;;;-2.22;100.00;97133.06;18295614;32;20454;-67
2022/12/08 07:59:45;;;;;;;15.97;9.27;;;;;;;-2.16;100.00;97124.31;18294208;32;20046;-67
2022/12/08 08:09:49;;;;;;;14.60;9.13;;;;;;;-2.05;100.00;97120.25;18281393;32;20054;-67
2022/12/08 08:19:53;;;;;;;;;;;;;;;-1.82;100.00;97119.87;18294432;32;20057;-66
2022/12/08 08:29:56;;;;;;;15.60;9.67;;;;;;;-1.49;100.00;97121.66;18294261;32;19986;-66
2022/12/08 08:39:59;;;;;;;16.17;9.60;;;;;;;-1.25;100.00;97130.81;18293475;32;20097;-67
2022/12/08 08:50:03;;;;;;;17.70;10.73;;;;;;;-1.02;100.00;97122.34;18279225;32;20092;-66
2022/12/08 09:00:09;;;;;;;18.93;10.87;;;;;;;-0.86;100.00;97131.69;18292386;32;20350;-66
2022/12/08 09:10:11;;;;;;;19.13;12.23;;;;;;;-0.68;100.00;97119.59;18294838;32;20102;-67
2022/12/08 09:20:14;;;;;;;18.73;11.57;;;;;;;-0.33;100.00;97113.06;18288716;32;20049;-66
2022/12/08 09:30:17;;;;;;;21.27;11.97;;;;;;;-0.02;100.00;97104.28;18288489;32;20085;-66
2022/12/08 09:40:23;;;;;;;17.17;10.50;;;;;;;0.27;100.00;97110.78;18288115;32;20043;-66
2022/12/08 09:50:29;;;;;;;16.30;10.23;;;;;;;0.50;100.00;97112.00;18301044;32;20066;-66
2022/12/08 10:00:39;;;;;;;19.63;10.87;;;;;;;0.78;100.00;97103.56;18300746;32;20054;-65
2022/12/08 10:10:56;;;;;;;16.40;9.87;;;;;;;1.04;100.00;97090.97;18300333;32;20070;-65
2022/12/08 10:21:11;;;;;;;15.20;9.93;;;;;;;1.25;100.00;97086.22;18299462;32;20347;-65
2022/12/08 10:31:23;;;;;;;17.70;10.83;;;;;;;1.46;100.00;97063.62;18285738;32;20050;-65
2022/12/08 10:41:26;;;;;;;18.03;11.17;;;;;;;1.75;100.00;97053.16;18298893;32;20046;-65
2022/12/08 10:51:38;;;;;;;19.53;12.33;;;;;;;2.16;100.00;97030.13;18298498;32;20070;-65
2022/12/08 11:01:46;;;;;;;25.60;14.90;;;;;;;2.32;100.00;97018.75;18297821;32;20050;-65
2022/12/08 11:11:58;;;;;;;21.97;12.67;;;;;;;2.13;100.00;97004.75;18297272;32;20054;-65
2022/12/08 11:22:01;;;;;;;19.40;12.43;;;;;;;1.55;100.00;97002.81;18296708;32;20062;-65
2022/12/08 11:32:11;;;;;;;23.30;13.75;;;;;;;1.10;100.00;96980.13;18295515;32;20365;-65
2022/12/08 11:42:20;;;;;;;21.90;13.83;;;;;;;0.58;100.00;96965.41;18295973;32;20075;-64
2022/12/08 11:52:40;;;;;;;26.57;15.07;;;;;;;0.49;100.00;96953.44;18281565;32;20142;-64
2022/12/08 12:02:52;;;;;;;27.37;15.47;;;;;;;0.52;100.00;96945.00;18294978;32;20077;-64
2022/12/08 12:13:33;;;;;;;24.50;15.37;;;;;;;0.63;100.00;96941.62;18293495;32;20054;-64
2022/12/08 12:23:45;;;;;;;22.97;14.50;;;;;;;0.84;100.00;96931.53;18293964;32;20096;-63
2022/12/08 12:33:49;;;;;;;25.77;16.10;;;;;;;0.89;100.00;96925.50;18293895;32;20076;-64
2022/12/08 12:44:23;;;;;;;31.27;17.73;;;;;;;0.95;100.00;96929.94;18281010;32;20076;-64
2022/12/08 12:54:28;;;;;;;28.47;17.00;;;;;;;0.88;100.00;96915.91;18303791;32;20139;-64
2022/12/08 13:04:36;;;;;;;29.90;17.65;;;;;;;0.76;100.00;96919.34;18303141;32;20072;-64
2022/12/08 13:14:51;;;;;;;36.50;20.07;;;;;;;0.64;100.00;96905.19;18303386;32;20436;-64
2022/12/08 13:25:32;;;;;;;36.03;19.90;;;;;;;0.53;100.00;96898.75;18301390;32;20106;-64
2022/12/08 13:35:45;;;;;;;33.90;19.27;;;;;;;0.47;100.00;96910.31;18301739;32;20146;-63
2022/12/08 13:45:51;;;;;;;31.80;19.00;;;;;;;0.77;100.00;96896.22;18287462;32;20065;-64
2022/12/08 13:56:14;;;;;;;;;;;;;;;0.76;100.00;96891.94;18289291;32;20106;-64
2022/12/08 14:06:41;;;;;;;28.50;16.47;;;;;;;0.54;100.00;96884.44;18300964;32;19946;-64
2022/12/08 14:16:56;;;;;;;32.90;19.10;;;;;;;0.37;100.00;96878.09;18300197;32;20374;-64
2022/12/08 14:27:02;;;;;;;28.07;16.50;;;;;;;0.23;100.00;96872.94;18299931;32;20058;-65
2022/12/08 14:37:11;;;;;;;26.80;16.07;;;;;;;0.33;100.00;96883.87;18298195;32;20105;-64
2022/12/08 14:47:20;;;;;;;27.93;16.50;;;;;;;0.44;100.00;96881.50;18298617;32;20065;-64
2022/12/08 14:57:30;;;;;;;29.13;17.37;;;;;;;0.29;100.00;96882.72;18298490;32;20110;-64
2022/12/08 15:07:48;;;;;;;31.13;17.00;;;;;;;0.18;100.00;96878.16;18283628;32;20092;-64
2022/12/08 15:18:15;;;;;;;28.23;16.80;;;;;;;0.13;100.00;96870.03;18283801;32;20069;-64
2022/12/08 15:28:23;;;;;;;28.40;16.77;;;;;;;0.12;100.00;96871.06;18296599;32;20084;-64
2022/12/08 15:38:31;;;;;;;26.57;16.00;;;;;;;-0.04;100.00;96862.66;18296170;32;20062;-64
2022/12/08 15:48:36;;;;;;;29.83;15.87;;;;;;;-0.24;100.00;96843.47;18281693;32;20390;-64
2022/12/08 15:58:39;;;;;;;;;;;;;;;-0.42;100.00;96826.47;18295681;32;20049;-64
2022/12/08 16:08:59;;;;;;;25.30;15.93;;;;;;;-0.45;100.00;96832.22;18295339;32;19976;-64
2022/12/08 16:19:14;;;;;;;20.47;12.80;;;;;;;-0.50;100.00;96825.97;18280533;32;20896;-64
2022/12/08 16:29:19;;;;;;;18.43;12.43;;;;;;;-0.76;100.00;96815.37;18293783;32;20061;-64
2022/12/08 16:39:22;;;;;;;19.30;12.73;;;;;;;-0.95;100.00;96808.41;18293651;32;20050;-64
2022/12/08 16:49:25;;;;;;;20.70;12.80;;;;;;;-1.04;100.00;96802.56;18280152;32;20143;-64
2022/12/08 16:59:29;;;;;;;19.73;12.70;;;;;;;-1.16;100.00;96806.94;18292766;32;20058;-64
2022/12/08 17:09:32;;;;;;;22.23;14.60;;;;;;;-1.35;100.00;96824.63;18278773;32;20069;-64
2022/12/08 17:19:35;;;;;;;21.07;13.70;;;;;;;-1.35;100.00;96808.72;18292055;32;20050;-64
2022/12/08 17:29:38;;;;;;;21.47;13.47;;;;;;;-1.49;100.00;96816.75;18291519;32;20098;-65
2022/12/08 17:39:41;;;;;;;23.17;14.33;;;;;;;-1.60;100.00;96814.81;18289081;32;20442;-65
2022/12/08 17:49:44;;;;;;;26.13;15.00;;;;;;;-1.56;100.00;96818.66;18301709;32;20058;-65
2022/12/08 17:59:47;;;;;;;24.00;14.73;;;;;;;-1.71;100.00;96809.13;18300820;32;20050;-65
2022/12/08 18:09:50;;;;;;;30.53;16.73;;;;;;;-1.76;100.00;96794.91;18300909;32;20046;-65
2022/12/08 18:19:53;;;;;;;22.60;14.70;;;;;;;-1.65;100.00;96804.00;18299977;32;20098;-65
2022/12/08 18:29:56;;;;;;;26.40;15.20;;;;;;;-1.71;100.00;96787.94;18300088;32;20054;-65
2022/12/08 18:39:58;;;;;;;23.63;13.90;;;;;;;-1.75;100.00;96792.03;18285702;32;20108;-65
2022/12/08 18:50:03;;;;;;;28.50;15.20;;;;;;;-1.71;100.00;96764.06;18298203;32;20441;-65
2022/12/08 19:00:07;;;;;;;22.43;13.53;;;;;;;-1.62;100.00;96767.28;18298107;32;20058;-65
2022/12/08 19:10:10;;;;;;;25.90;14.57;;;;;;;-1.63;100.00;96773.62;18283785;32;20072;-65
2022/12/08 19:20:13;;;;;;;28.20;15.57;;;;;;;-1.50;100.00;96754.16;18283136;32;20069;-65
2022/12/08 19:30:17;;;;;;;26.73;15.30;;;;;;;-1.44;100.00;96745.34;18296556;32;20062;-65
2022/12/08 19:50:41;;;;;;;23.23;14.17;;;;;;;-1.20;100.00;96732.28;18282058;32;20089;-65
2022/12/08 20:00:45;;;;;;;31.87;17.03;;;;;;;-1.34;100.00;96725.47;18294194;32;20042;-65
2022/12/08 20:10:48;;;;;;;29.77;16.40;;;;;;;-1.27;100.00;96726.25;18294635;32;20058;-65
2022/12/08 20:20:51;;;;;;;29.70;16.23;;;;;;;-1.25;100.00;96724.16;18281018;32;20087;-65
2022/12/08 20:30:54;;;;;;;34.43;17.43;;;;;;;-1.24;100.00;96720.50;18294767;32;20062;-65
2022/12/08 20:40:58;;;;;;;35.27;18.27;;;;;;;-1.27;100.00;96724.37;18293502;32;20106;-65
2022/12/08 20:51:02;;;;;;;30.70;16.90;;;;;;;-1.26;100.00;96717.22;18293246;32;20070;-65
2022/12/08 21:01:10;;;;;;;33.70;16.33;;;;;;;-1.23;100.00;96706.22;18292546;32;20105;-65
2022/12/08 21:11:13;;;;;;;37.93;19.20;;;;;;;-1.26;100.00;96701.31;18300876;32;20057;-65
2022/12/08 21:21:16;;;;;;;32.43;17.83;;;;;;;-1.24;100.00;96702.72;18302853;32;20065;-65
2022/12/08 21:31:25;;;;;;;41.93;19.33;;;;;;;-1.23;100.00;96687.66;18302492;32;20065;-65
2022/12/08 21:51:49;;;;;;;36.13;18.70;;;;;;;-1.23;100.00;96663.78;18301622;32;20109;-65
2022/12/08 22:01:52;;;;;;;32.23;17.47;;;;;;;-1.18;100.00;96671.88;18286715;32;20042;-65
2022/12/08 22:11:55;;;;;;;34.20;17.83;;;;;;;-1.21;100.00;96659.06;18300625;32;20059;-65
2022/12/08 22:21:58;;;;;;;35.80;16.97;;;;;;;-1.19;100.00;96654.34;18299360;32;20084;-65
2022/12/08 22:32:01;;;;;;;36.37;19.30;;;;;;;-1.26;100.00;96649.13;18286180;32;20053;-65
2022/12/08 22:42:04;;;;;;;30.93;16.77;;;;;;;-1.26;100.00;96643.81;18285992;32;20081;-65
2022/12/08 22:52:07;;;;;;;33.07;17.67;;;;;;;-1.26;100.00;96648.28;18298404;32;20078;-65
2022/12/08 23:02:11;;;;;;;33.57;16.90;;;;;;;-1.20;100.00;96642.91;18297773;32;20058;-65
2022/12/08 23:12:13;;;;;;;37.30;19.30;;;;;;;-1.24;100.00;96625.03;18297717;32;20391;-65
2022/12/08 23:22:16;;;;;;;30.23;15.17;;;;;;;-1.18;100.00;96618.81;18297028;32;20065;-65
2022/12/08 23:32:19;;;;;;;29.20;16.13;;;;;;;-1.20;100.00;96628.84;18296535;32;20061;-65
2022/12/08 23:42:22;;;;;;;32.23;15.33;;;;;;;-1.12;100.00;96627.75;18296118;32;20042;-65
2022/12/08 23:52:25;;;;;;;27.13;14.53;;;;;;;-1.07;100.00;96626.06;18295854;32;20105;-65
